sensor_id;sensor_type;location;lat;lon;timestamp;pressure;altitude;pressure_sealevel;temperature;humidity
56671;BME280;42545;50.054;8.306;2023-04-25T00:00:56;99327.97;;;6.63;100.00
56671;BME280;42545;50.054;8.306;2023-04-25T00:03:23;99320.16;;;6.65;100.00
56671;BME280;42545;50.054;8.306;2023-04-25T00:05:50;99326.28;;;6.67;100.00
56671;BME280;42545;50.054;8.306;2023-04-25T00:08:18;99318.47;;;6.68;100.00
56671;BME280;42545;50.054;8.306;2023-04-25T00:10:44;99316.78;;;6.72;100.00
56671;BME280;42545;50.054;8.306;2023-04-25T00:13:11;99322.88;;;6.71;100.00
56671;BME280;42545;50.054;8.306;2023-04-25T00:15:38;99329.00;;;6.71;100.00
56671;BME280;42545;50.054;8.306;2023-04-25T00:18:08;99316.72;;;6.69;100.00
56671;BME280;42545;50.054;8.306;2023-04-25T00:20:35;99312.28;;;6.65;100.00
56671;BME280;42545;50.054;8.306;2023-04-25T00:23:01;99315.78;;;6.65;100.00
56671;BME280;42545;50.054;8.306;2023-04-25T00:25:28;99320.16;;;6.65;100.00
56671;BME280;42545;50.054;8.306;2023-04-25T00:27:54;99332.34;;;6.63;100.00
56671;BME280;42545;50.054;8.306;2023-04-25T00:30:21;99334.09;;;6.64;100.00
56671;BME280;42545;50.054;8.306;2023-04-25T00:32:47;99334.97;;;6.64;100.00
56671;BME280;42545;50.054;8.306;2023-04-25T00:35:17;99333.25;;;6.65;100.00
56671;BME280;42545;50.054;8.306;2023-04-25T00:37:45;99328.03;;;6.66;100.00
56671;BME280;42545;50.054;8.306;2023-04-25T00:40:11;99334.16;;;6.67;100.00
56671;BME280;42545;50.054;8.306;2023-04-25T00:42:39;99328.91;;;6.67;100.00
56671;BME280;42545;50.054;8.306;2023-04-25T00:45:09;99324.59;;;6.69;100.00
56671;BME280;42545;50.054;8.306;2023-04-25T00:47:39;99322.84;;;6.69;100.00
56671;BME280;42545;50.054;8.306;2023-04-25T00:50:08;99305.34;;;6.68;100.00
56671;BME280;42545;50.054;8.306;2023-04-25T00:52:37;99300.97;;;6.67;100.00
56671;BME280;42545;50.054;8.306;2023-04-25T00:55:05;99305.31;;;6.67;100.00
56671;BME280;42545;50.054;8.306;2023-04-25T00:57:32;99303.63;;;6.69;100.00
56671;BME280;42545;50.054;8.306;2023-04-25T00:59:59;99303.69;;;6.72;100.00
56671;BME280;42545;50.054;8.306;2023-04-25T01:02:27;99303.69;;;6.72;100.00
56671;BME280;42545;50.054;8.306;2023-04-25T01:04:53;99309.88;;;6.76;100.00
56671;BME280;42545;50.054;8.306;2023-04-25T01:07:20;99311.63;;;6.77;100.00
56671;BME280;42545;50.054;8.306;2023-04-25T01:09:49;99322.19;;;6.80;100.00
56671;BME280;42545;50.054;8.306;2023-04-25T01:12:17;99315.19;;;6.80;100.00
56671;BME280;42545;50.054;8.306;2023-04-25T01:14:44;99310.75;;;6.76;100.00
56671;BME280;42545;50.054;8.306;2023-04-25T01:17:11;99307.22;;;6.74;100.00
56671;BME280;42545;50.054;8.306;2023-04-25T01:19:38;99303.72;;;6.75;100.00
56671;BME280;42545;50.054;8.306;2023-04-25T01:22:06;99304.59;;;6.74;100.00
56671;BME280;42545;50.054;8.306;2023-04-25T01:24:35;99307.25;;;6.76;100.00
56671;BME280;42545;50.054;8.306;2023-04-25T01:27:03;99308.16;;;6.78;100.00
56671;BME280;42545;50.054;8.306;2023-04-25T01:29:31;99316.03;;;6.78;100.00
56671;BME280;42545;50.054;8.306;2023-04-25T01:31:59;99307.28;;;6.79;100.00
56671;BME280;42545;50.054;8.306;2023-04-25T01:34:25;99309.88;;;6.77;100.00
56671;BME280;42545;50.054;8.306;2023-04-25T01:36:53;99301.88;;;6.69;100.00
56671;BME280;42545;50.054;8.306;2023-04-25T01:39:21;99308.91;;;6.70;100.00
56671;BME280;42545;50.054;8.306;2023-04-25T01:41:47;99304.56;;;6.72;100.00
56671;BME280;42545;50.054;8.306;2023-04-25T01:44:14;99301.91;;;6.71;100.00
56671;BME280;42545;50.054;8.306;2023-04-25T01:46:41;99302.78;;;6.71;100.00
56671;BME280;42545;50.054;8.306;2023-04-25T01:49:08;99302.78;;;6.71;100.00
56671;BME280;42545;50.054;8.306;2023-04-25T01:51:34;99308.91;;;6.70;100.00
56671;BME280;42545;50.054;8.306;2023-04-25T01:54:01;99305.34;;;6.68;100.00
56671;BME280;42545;50.054;8.306;2023-04-25T01:56:31;99308.75;;;6.64;100.00
56671;BME280;42545;50.054;8.306;2023-04-25T01:58:59;99312.28;;;6.65;100.00
56671;BME280;42545;50.054;8.306;2023-04-25T02:01:26;99315.66;;;6.61;100.00
56671;BME280;42545;50.054;8.306;2023-04-25T02:03:52;99312.13;;;6.57;100.00
56671;BME280;42545;50.054;8.306;2023-04-25T02:06:19;99307.72;;;6.56;100.00
56671;BME280;42545;50.054;8.306;2023-04-25T02:08:45;99299.81;;;6.54;100.00
56671;BME280;42545;50.054;8.306;2023-04-25T02:11:12;99304.16;;;6.52;100.00
56671;BME280;42545;50.054;8.306;2023-04-25T02:13:40;99305.84;;;6.49;100.00
56671;BME280;42545;50.054;8.306;2023-04-25T02:16:07;99316.28;;;6.47;100.00
56671;BME280;42545;50.054;8.306;2023-04-25T02:18:34;99303.06;;;6.41;100.00
56671;BME280;42545;50.054;8.306;2023-04-25T02:21:02;99310.97;;;6.43;100.00
56671;BME280;42545;50.054;8.306;2023-04-25T02:23:29;99311.72;;;6.39;100.00
56671;BME280;42545;50.054;8.306;2023-04-25T02:25:56;99310.84;;;6.38;100.00
56671;BME280;42545;50.054;8.306;2023-04-25T02:28:23;99307.31;;;6.36;100.00
56671;BME280;42545;50.054;8.306;2023-04-25T02:30:52;99307.28;;;6.34;100.00
56671;BME280;42545;50.054;8.306;2023-04-25T02:33:19;99308.06;;;6.30;100.00
56671;BME280;42545;50.054;8.306;2023-04-25T02:35:46;99307.19;;;6.30;100.00
56671;BME280;42545;50.054;8.306;2023-04-25T02:38:13;99305.44;;;6.30;100.00
56671;BME280;42545;50.054;8.306;2023-04-25T02:40:41;99299.28;;;6.28;100.00
56671;BME280;42545;50.054;8.306;2023-04-25T02:43:07;99297.41;;;6.21;100.00
56671;BME280;42545;50.054;8.306;2023-04-25T02:45:34;99309.75;;;6.27;100.00
56671;BME280;42545;50.054;8.306;2023-04-25T02:48:04;99304.41;;;6.24;100.00
56671;BME280;42545;50.054;8.306;2023-04-25T02:50:31;99300.09;;;6.24;100.00
56671;BME280;42545;50.054;8.306;2023-04-25T02:52:57;99303.53;;;6.23;100.00
56671;BME280;42545;50.054;8.306;2023-04-25T02:55:25;99298.28;;;6.22;100.00
56671;BME280;42545;50.054;8.306;2023-04-25T02:57:51;99303.50;;;6.22;100.00
56671;BME280;42545;50.054;8.306;2023-04-25T03:00:20;99299.97;;;6.20;100.00
56671;BME280;42545;50.054;8.306;2023-04-25T03:02:47;99303.44;;;6.17;100.00
56671;BME280;42545;50.054;8.306;2023-04-25T03:05:15;99306.84;;;6.14;100.00
56671;BME280;42545;50.054;8.306;2023-04-25T03:07:42;99307.66;;;6.12;100.00
56671;BME280;42545;50.054;8.306;2023-04-25T03:10:09;99317.19;;;6.08;100.00
56671;BME280;42545;50.054;8.306;2023-04-25T03:12:36;99319.84;;;6.11;100.00
56671;BME280;42545;50.054;8.306;2023-04-25T03:15:06;99318.16;;;6.12;100.00
56671;BME280;42545;50.054;8.306;2023-04-25T03:17:33;99321.59;;;6.11;100.00
56671;BME280;42545;50.054;8.306;2023-04-25T03:20:03;99318.16;;;6.12;100.00
56671;BME280;42545;50.054;8.306;2023-04-25T03:22:32;99317.28;;;6.13;100.00
56671;BME280;42545;50.054;8.306;2023-04-25T03:25:01;99312.09;;;6.14;100.00
56671;BME280;42545;50.054;8.306;2023-04-25T03:27:29;99306.84;;;6.14;100.00
56671;BME280;42545;50.054;8.306;2023-04-25T03:29:55;99295.38;;;6.09;100.00
56671;BME280;42545;50.054;8.306;2023-04-25T03:32:22;99292.72;;;6.06;100.00
56671;BME280;42545;50.054;8.306;2023-04-25T03:34:48;99299.78;;;6.10;100.00
56671;BME280;42545;50.054;8.306;2023-04-25T03:37:15;99302.47;;;6.13;100.00
56671;BME280;42545;50.054;8.306;2023-04-25T03:39:43;99286.72;;;6.12;100.00
56671;BME280;42545;50.054;8.306;2023-04-25T03:42:10;99288.38;;;6.08;100.00
56671;BME280;42545;50.054;8.306;2023-04-25T03:44:36;99292.75;;;6.08;100.00
56671;BME280;42545;50.054;8.306;2023-04-25T03:47:03;99306.56;;;6.02;100.00
56671;BME280;42545;50.054;8.306;2023-04-25T03:49:32;99307.34;;;5.98;100.00
56671;BME280;42545;50.054;8.306;2023-04-25T03:51:59;99317.50;;;5.86;100.00
56671;BME280;42545;50.054;8.306;2023-04-25T03:54:25;99319.16;;;5.81;100.00
56671;BME280;42545;50.054;8.306;2023-04-25T03:56:53;99313.78;;;5.76;100.00
56671;BME280;42545;50.054;8.306;2023-04-25T03:59:20;99325.03;;;5.72;100.00
56671;BME280;42545;50.054;8.306;2023-04-25T04:01:47;99328.44;;;5.68;100.00
56671;BME280;42545;50.054;8.306;2023-04-25T04:04:13;99331.84;;;5.65;100.00
56671;BME280;42545;50.054;8.306;2023-04-25T04:06:40;99337.00;;;5.62;100.00
56671;BME280;42545;50.054;8.306;2023-04-25T04:09:07;99344.75;;;5.57;100.00
56671;BME280;42545;50.054;8.306;2023-04-25T04:11:36;99349.81;;;5.50;100.00
56671;BME280;42545;50.054;8.306;2023-04-25T04:14:05;99343.56;;;5.45;100.00
56671;BME280;42545;50.054;8.306;2023-04-25T04:16:32;99344.34;;;5.41;100.00
56671;BME280;42545;50.054;8.306;2023-04-25T04:19:00;99345.13;;;5.38;100.00
56671;BME280;42545;50.054;8.306;2023-04-25T04:21:27;99353.75;;;5.34;100.00
56671;BME280;42545;50.054;8.306;2023-04-25T04:23:53;99357.19;;;5.33;100.00
56671;BME280;42545;50.054;8.306;2023-04-25T04:26:20;99358.06;;;5.32;100.00
56671;BME280;42545;50.054;8.306;2023-04-25T04:28:48;99360.63;;;5.30;100.00
56671;BME280;42545;50.054;8.306;2023-04-25T04:31:17;99353.56;;;5.26;100.00
56671;BME280;42545;50.054;8.306;2023-04-25T04:33:45;99367.47;;;5.25;100.00
56671;BME280;42545;50.054;8.306;2023-04-25T04:36:12;99366.59;;;5.25;100.00
56671;BME280;42545;50.054;8.306;2023-04-25T04:38:39;99375.41;;;5.28;100.00
56671;BME280;42545;50.054;8.306;2023-04-25T04:41:07;99362.31;;;5.28;100.00
56671;BME280;42545;50.054;8.306;2023-04-25T04:43:34;99378.13;;;5.31;100.00
56671;BME280;42545;50.054;8.306;2023-04-25T04:46:03;99380.75;;;5.33;100.00
56671;BME280;42545;50.054;8.306;2023-04-25T04:48:32;99369.28;;;5.28;100.00
56671;BME280;42545;50.054;8.306;2023-04-25T04:50:59;99372.75;;;5.27;100.00
56671;BME280;42545;50.054;8.306;2023-04-25T04:53:26;99376.22;;;5.26;100.00
56671;BME280;42545;50.054;8.306;2023-04-25T04:55:55;99371.88;;;5.26;100.00
56671;BME280;42545;50.054;8.306;2023-04-25T04:58:21;99365.72;;;5.24;100.00
56671;BME280;42545;50.054;8.306;2023-04-25T05:00:48;99370.94;;;5.24;100.00
56671;BME280;42545;50.054;8.306;2023-04-25T05:03:15;99380.47;;;5.22;100.00
56671;BME280;42545;50.054;8.306;2023-04-25T05:05:43;99368.16;;;5.18;100.00
56671;BME280;42545;50.054;8.306;2023-04-25T05:08:11;99380.50;;;5.24;100.00
56671;BME280;42545;50.054;8.306;2023-04-25T05:10:37;99378.22;;;5.36;100.00
56671;BME280;42545;50.054;8.306;2023-04-25T05:13:04;99379.00;;;5.32;100.00
56671;BME280;42545;50.054;8.306;2023-04-25T05:15:30;99385.97;;;5.31;100.00
56671;BME280;42545;50.054;8.306;2023-04-25T05:17:57;99388.63;;;5.34;100.00
56671;BME280;42545;50.054;8.306;2023-04-25T05:20:24;99393.97;;;5.37;100.00
56671;BME280;42545;50.054;8.306;2023-04-25T05:22:52;99401.91;;;5.41;100.00
56671;BME280;42545;50.054;8.306;2023-04-25T05:25:19;99401.94;;;5.42;98.85
56671;BME280;42545;50.054;8.306;2023-04-25T05:27:45;99399.44;;;5.47;99.62
56671;BME280;42545;50.054;8.306;2023-04-25T05:30:12;99391.53;;;5.45;99.12
56671;BME280;42545;50.054;8.306;2023-04-25T05:32:38;99401.38;;;5.54;99.05
56671;BME280;42545;50.054;8.306;2023-04-25T05:35:06;99401.50;;;5.58;98.37
56671;BME280;42545;50.054;8.306;2023-04-25T05:37:34;99396.97;;;5.53;96.97
56671;BME280;42545;50.054;8.306;2023-04-25T05:40:02;99400.50;;;5.53;96.09
56671;BME280;42545;50.054;8.306;2023-04-25T05:42:31;99411.06;;;5.58;96.79
56671;BME280;42545;50.054;8.306;2023-04-25T05:44:58;99405.97;;;5.63;96.70
56671;BME280;42545;50.054;8.306;2023-04-25T05:47:25;99410.47;;;5.68;97.13
56671;BME280;42545;50.054;8.306;2023-04-25T05:49:52;99408.75;;;5.70;96.75
56671;BME280;42545;50.054;8.306;2023-04-25T05:52:19;99412.34;;;5.74;96.22
56671;BME280;42545;50.054;8.306;2023-04-25T05:54:46;99417.69;;;5.78;96.68
56671;BME280;42545;50.054;8.306;2023-04-25T05:57:20;99427.41;;;5.83;96.08
56671;BME280;42545;50.054;8.306;2023-04-25T05:59:47;99428.38;;;5.86;96.27
56671;BME280;42545;50.054;8.306;2023-04-25T06:02:14;99432.91;;;5.93;95.95
56671;BME280;42545;50.054;8.306;2023-04-25T06:04:41;99434.19;;;6.08;96.14
56671;BME280;42545;50.054;8.306;2023-04-25T06:07:07;99423.88;;;6.15;93.79
56671;BME280;42545;50.054;8.306;2023-04-25T06:09:35;99431.09;;;6.26;94.52
56671;BME280;42545;50.054;8.306;2023-04-25T06:12:01;99437.44;;;6.35;94.32
56671;BME280;42545;50.054;8.306;2023-04-25T06:14:30;99431.47;;;6.41;92.92
56671;BME280;42545;50.054;8.306;2023-04-25T06:16:57;99428.94;;;6.46;93.07
56671;BME280;42545;50.054;8.306;2023-04-25T06:19:24;99431.59;;;6.47;92.87
56671;BME280;42545;50.054;8.306;2023-04-25T06:21:51;99431.63;;;6.49;92.55
56671;BME280;42545;50.054;8.306;2023-04-25T06:24:17;99433.34;;;6.47;90.95
56671;BME280;42545;50.054;8.306;2023-04-25T06:26:44;99436.91;;;6.50;92.41
56671;BME280;42545;50.054;8.306;2023-04-25T06:29:10;99435.28;;;6.56;92.53
56671;BME280;42545;50.054;8.306;2023-04-25T06:31:39;99451.88;;;6.56;91.81
56671;BME280;42545;50.054;8.306;2023-04-25T06:34:06;99437.75;;;6.49;89.89
56671;BME280;42545;50.054;8.306;2023-04-25T06:36:35;99455.31;;;6.52;91.21
56671;BME280;42545;50.054;8.306;2023-04-25T06:39:02;99449.22;;;6.54;90.87
56671;BME280;42545;50.054;8.306;2023-04-25T06:41:28;99450.97;;;6.54;90.03
56671;BME280;42545;50.054;8.306;2023-04-25T06:43:55;99446.69;;;6.58;90.49
56671;BME280;42545;50.054;8.306;2023-04-25T06:46:23;99445.06;;;6.63;91.08
56671;BME280;42545;50.054;8.306;2023-04-25T06:48:51;99452.97;;;6.66;90.56
56671;BME280;42545;50.054;8.306;2023-04-25T06:51:18;99455.56;;;6.64;89.53
56671;BME280;42545;50.054;8.306;2023-04-25T06:53:44;99452.97;;;6.66;90.05
56671;BME280;42545;50.054;8.306;2023-04-25T06:56:11;99449.59;;;6.70;90.23
56671;BME280;42545;50.054;8.306;2023-04-25T06:58:37;99448.75;;;6.72;89.69
56671;BME280;42545;50.054;8.306;2023-04-25T07:01:04;99451.34;;;6.71;88.25
56671;BME280;42545;50.054;8.306;2023-04-25T07:03:31;99455.91;;;6.80;89.41
56671;BME280;42545;50.054;8.306;2023-04-25T07:05:59;99467.44;;;6.86;88.62
56671;BME280;42545;50.054;8.306;2023-04-25T07:08:26;99467.63;;;6.96;88.34
56671;BME280;42545;50.054;8.306;2023-04-25T07:10:54;99465.31;;;7.11;88.43
56671;BME280;42545;50.054;8.306;2023-04-25T07:13:21;99466.44;;;7.24;87.46
56671;BME280;42545;50.054;8.306;2023-04-25T07:15:48;99468.44;;;7.36;87.14
56671;BME280;42545;50.054;8.306;2023-04-25T07:18:16;99466.91;;;7.47;85.82
56671;BME280;42545;50.054;8.306;2023-04-25T07:20:42;99455.72;;;7.57;85.67
56671;BME280;42545;50.054;8.306;2023-04-25T07:23:10;99467.34;;;7.72;83.41
56671;BME280;42545;50.054;8.306;2023-04-25T07:25:37;99454.34;;;7.79;83.44
56671;BME280;42545;50.054;8.306;2023-04-25T07:28:04;99452.72;;;7.86;80.74
56671;BME280;42545;50.054;8.306;2023-04-25T07:30:31;99466.91;;;7.94;80.72
56671;BME280;42545;50.054;8.306;2023-04-25T07:32:59;99467.78;;;7.95;80.23
56671;BME280;42545;50.054;8.306;2023-04-25T07:35:26;99458.13;;;7.94;78.69
56671;BME280;42545;50.054;8.306;2023-04-25T07:37:53;99466.06;;;7.97;79.25
56671;BME280;42545;50.054;8.306;2023-04-25T07:40:22;99472.16;;;7.94;78.95
56671;BME280;42545;50.054;8.306;2023-04-25T07:42:48;99475.69;;;7.96;79.88
56671;BME280;42545;50.054;8.306;2023-04-25T07:45:15;99476.66;;;8.01;79.07
56671;BME280;42545;50.054;8.306;2023-04-25T07:47:42;99477.59;;;8.06;79.28
56671;BME280;42545;50.054;8.306;2023-04-25T07:50:09;99480.38;;;8.16;78.66
56671;BME280;42545;50.054;8.306;2023-04-25T07:52:36;99476.19;;;8.25;78.74
56671;BME280;42545;50.054;8.306;2023-04-25T07:55:04;99469.19;;;8.26;78.44
56671;BME280;42545;50.054;8.306;2023-04-25T07:57:32;99477.13;;;8.29;75.32
56671;BME280;42545;50.054;8.306;2023-04-25T07:59:59;99491.16;;;8.31;76.76
56671;BME280;42545;50.054;8.306;2023-04-25T08:02:27;99484.28;;;8.39;76.77
56671;BME280;42545;50.054;8.306;2023-04-25T08:04:54;99496.75;;;8.50;76.02
56671;BME280;42545;50.054;8.306;2023-04-25T08:07:21;99493.28;;;8.52;74.58
56671;BME280;42545;50.054;8.306;2023-04-25T08:09:48;99494.22;;;8.57;74.61
56671;BME280;42545;50.054;8.306;2023-04-25T08:12:14;99504.84;;;8.62;74.41
56671;BME280;42545;50.054;8.306;2023-04-25T08:14:43;99503.16;;;8.67;73.83
56671;BME280;42545;50.054;8.306;2023-04-25T08:17:10;99507.66;;;8.76;75.08
56671;BME280;42545;50.054;8.306;2023-04-25T08:19:36;99513.13;;;8.90;74.01
56671;BME280;42545;50.054;8.306;2023-04-25T08:22:04;99515.88;;;8.97;74.32
56671;BME280;42545;50.054;8.306;2023-04-25T08:24:31;99518.56;;;9.02;72.34
56671;BME280;42545;50.054;8.306;2023-04-25T08:26:57;99517.53;;;8.89;69.79
56671;BME280;42545;50.054;8.306;2023-04-25T08:32:47;99531.59;;;8.93;72.52
56671;BME280;42545;50.054;8.306;2023-04-25T08:41:58;99546.84;;;9.17;70.54
56671;BME280;42545;50.054;8.306;2023-04-25T08:44:26;99542.50;;;9.20;69.80
56671;BME280;42545;50.054;8.306;2023-04-25T08:46:53;99546.09;;;9.26;66.38
56671;BME280;42545;50.054;8.306;2023-04-25T08:49:28;99549.66;;;9.29;67.64
56671;BME280;42545;50.054;8.306;2023-04-25T08:51:57;99551.41;;;9.30;66.38
56671;BME280;42545;50.054;8.306;2023-04-25T08:54:27;99554.94;;;9.32;65.85
56671;BME280;42545;50.054;8.306;2023-04-25T08:56:54;99554.16;;;9.39;66.36
56671;BME280;42545;50.054;8.306;2023-04-25T08:59:22;99559.53;;;9.46;66.17
56671;BME280;42545;50.054;8.306;2023-04-25T09:01:51;99566.69;;;9.57;66.51
56671;BME280;42545;50.054;8.306;2023-04-25T09:04:18;99564.06;;;9.59;65.81
56671;BME280;42545;50.054;8.306;2023-04-25T09:06:46;99565.78;;;9.55;66.14
56671;BME280;42545;50.054;8.306;2023-04-25T09:09:13;99564.91;;;9.56;65.06
56671;BME280;42545;50.054;8.306;2023-04-25T09:11:40;99565.84;;;9.58;65.11
56671;BME280;42545;50.054;8.306;2023-04-25T09:14:11;99579.88;;;9.59;66.05
56671;BME280;42545;50.054;8.306;2023-04-25T09:16:57;99579.06;;;9.65;65.39
56671;BME280;42545;50.054;8.306;2023-04-25T09:19:27;99584.34;;;9.66;66.23
56671;BME280;42545;50.054;8.306;2023-04-25T09:21:56;99583.41;;;9.61;65.16
56671;BME280;42545;50.054;8.306;2023-04-25T09:24:34;99582.53;;;9.60;65.61
56671;BME280;42545;50.054;8.306;2023-04-25T09:27:03;99577.31;;;9.65;66.19
56671;BME280;42545;50.054;8.306;2023-04-25T09:29:31;99593.22;;;9.71;64.20
56671;BME280;42545;50.054;8.306;2023-04-25T09:32:14;99590.63;;;9.77;64.47
56671;BME280;42545;50.054;8.306;2023-04-25T09:34:43;99595.13;;;9.85;65.22
56671;BME280;42545;50.054;8.306;2023-04-25T09:37:12;99590.84;;;9.96;65.06
56671;BME280;42545;50.054;8.306;2023-04-25T09:39:39;99593.56;;;10.04;64.40
56671;BME280;42545;50.054;8.306;2023-04-25T09:42:06;99594.50;;;10.09;65.34
56671;BME280;42545;50.054;8.306;2023-04-25T09:44:32;99598.00;;;10.09;62.87
56671;BME280;42545;50.054;8.306;2023-04-25T09:46:59;99608.53;;;10.05;62.62
56671;BME280;42545;50.054;8.306;2023-04-25T09:49:28;99612.00;;;10.00;63.33
56671;BME280;42545;50.054;8.306;2023-04-25T09:51:54;99608.44;;;9.97;63.18
56671;BME280;42545;50.054;8.306;2023-04-25T09:54:25;99608.38;;;9.92;63.51
56671;BME280;42545;50.054;8.306;2023-04-25T09:56:52;99626.81;;;9.92;63.26
56671;BME280;42545;50.054;8.306;2023-04-25T09:59:22;99624.06;;;9.83;63.32
56671;BME280;42545;50.054;8.306;2023-04-25T10:01:49;99624.03;;;9.80;64.12
56671;BME280;42545;50.054;8.306;2023-04-25T10:04:19;99631.09;;;9.81;64.15
56671;BME280;42545;50.054;8.306;2023-04-25T10:06:48;99630.13;;;9.76;62.56
56671;BME280;42545;50.054;8.306;2023-04-25T10:09:17;99639.84;;;9.78;62.74
56671;BME280;42545;50.054;8.306;2023-04-25T10:11:48;99628.38;;;9.76;61.90
56671;BME280;42545;50.054;8.306;2023-04-25T10:14:17;99632.88;;;9.85;62.80
56671;BME280;42545;50.054;8.306;2023-04-25T10:16:45;99637.38;;;9.92;62.58
56671;BME280;42545;50.054;8.306;2023-04-25T10:19:12;99634.84;;;10.03;62.85
56671;BME280;42545;50.054;8.306;2023-04-25T10:21:46;99632.28;;;10.06;60.52
56671;BME280;42545;50.054;8.306;2023-04-25T10:24:15;99642.84;;;10.08;61.91
56671;BME280;42545;50.054;8.306;2023-04-25T10:26:42;99641.09;;;10.10;60.58
56671;BME280;42545;50.054;8.306;2023-04-25T10:29:24;99632.28;;;10.09;60.63
56671;BME280;42545;50.054;8.306;2023-04-25T10:31:51;99638.44;;;10.08;61.30
56671;BME280;42545;50.054;8.306;2023-04-25T10:34:19;99631.41;;;10.09;61.75
56671;BME280;42545;50.054;8.306;2023-04-25T10:36:50;99635.81;;;10.08;60.86
56671;BME280;42545;50.054;8.306;2023-04-25T10:39:22;99629.56;;;10.01;61.53
56671;BME280;42545;50.054;8.306;2023-04-25T10:41:53;99614.47;;;9.87;60.54
56671;BME280;42545;50.054;8.306;2023-04-25T10:44:25;99629.34;;;9.83;60.41
56671;BME280;42545;50.054;8.306;2023-04-25T10:46:55;99643.44;;;9.85;62.27
56671;BME280;42545;50.054;8.306;2023-04-25T10:49:31;99653.03;;;9.78;61.16
56671;BME280;42545;50.054;8.306;2023-04-25T10:52:11;99647.72;;;9.77;60.63
56671;BME280;42545;50.054;8.306;2023-04-25T10:54:41;99649.47;;;9.75;60.41
56671;BME280;42545;50.054;8.306;2023-04-25T10:57:26;99650.44;;;9.83;60.77
56671;BME280;42545;50.054;8.306;2023-04-25T10:59:58;99656.66;;;9.88;60.21
56671;BME280;42545;50.054;8.306;2023-04-25T11:02:26;99650.56;;;9.94;60.11
56671;BME280;42545;50.054;8.306;2023-04-25T11:04:54;99646.09;;;9.88;59.35
56671;BME280;42545;50.054;8.306;2023-04-25T11:07:28;99655.03;;;9.99;59.20
56671;BME280;42545;50.054;8.306;2023-04-25T11:10:01;99650.72;;;10.06;59.83
56671;BME280;42545;50.054;8.306;2023-04-25T11:12:30;99655.16;;;10.10;58.67
56671;BME280;42545;50.054;8.306;2023-04-25T11:15:02;99652.59;;;10.18;59.08
56671;BME280;42545;50.054;8.306;2023-04-25T11:17:29;99657.06;;;10.25;59.45
56671;BME280;42545;50.054;8.306;2023-04-25T11:19:56;99662.41;;;10.28;58.62
56671;BME280;42545;50.054;8.306;2023-04-25T11:22:23;99665.13;;;10.31;58.99
56671;BME280;42545;50.054;8.306;2023-04-25T11:24:50;99661.56;;;10.31;58.52
56671;BME280;42545;50.054;8.306;2023-04-25T11:27:17;99664.06;;;10.18;57.37
56671;BME280;42545;50.054;8.306;2023-04-25T11:29:46;99677.00;;;10.00;58.30
56671;BME280;42545;50.054;8.306;2023-04-25T11:32:17;99688.25;;;9.87;58.07
56671;BME280;42545;50.054;8.306;2023-04-25T11:34:44;99688.19;;;9.82;59.57
56671;BME280;42545;50.054;8.306;2023-04-25T11:37:12;99682.97;;;9.87;58.92
56671;BME280;42545;50.054;8.306;2023-04-25T11:39:42;99686.47;;;9.84;58.12
56671;BME280;42545;50.054;8.306;2023-04-25T11:42:09;99686.50;;;9.89;58.27
56671;BME280;42545;50.054;8.306;2023-04-25T11:44:37;99682.97;;;9.87;58.78
56671;BME280;42545;50.054;8.306;2023-04-25T11:47:06;99686.50;;;9.89;57.89
56671;BME280;42545;50.054;8.306;2023-04-25T11:49:35;99689.13;;;9.87;57.58
56671;BME280;42545;50.054;8.306;2023-04-25T11:52:02;99693.47;;;9.82;58.61
56671;BME280;42545;50.054;8.306;2023-04-25T11:54:28;99694.28;;;9.79;58.51
56671;BME280;42545;50.054;8.306;2023-04-25T11:56:55;99689.88;;;9.77;58.66
56671;BME280;42545;50.054;8.306;2023-04-25T11:59:23;99698.75;;;9.82;59.44
56671;BME280;42545;50.054;8.306;2023-04-25T12:01:50;99690.84;;;9.85;58.73
56671;BME280;42545;50.054;8.306;2023-04-25T12:04:19;99692.72;;;9.94;58.72
56671;BME280;42545;50.054;8.306;2023-04-25T12:06:49;99691.06;;;9.99;56.40
56671;BME280;42545;50.054;8.306;2023-04-25T12:09:19;99692.91;;;10.08;57.12
56671;BME280;42545;50.054;8.306;2023-04-25T12:11:48;99685.06;;;10.14;56.66
56671;BME280;42545;50.054;8.306;2023-04-25T12:14:21;99696.59;;;10.22;55.67
56671;BME280;42545;50.054;8.306;2023-04-25T12:16:50;99688.84;;;10.31;55.14
56671;BME280;42545;50.054;8.306;2023-04-25T12:19:19;99684.50;;;10.38;53.69
56671;BME280;42545;50.054;8.306;2023-04-25T12:21:50;99675.81;;;10.47;54.28
56671;BME280;42545;50.054;8.306;2023-04-25T12:24:17;99679.56;;;10.69;53.71
56671;BME280;42545;50.054;8.306;2023-04-25T12:26:49;99679.78;;;10.95;53.31
56671;BME280;42545;50.054;8.306;2023-04-25T12:29:18;99676.38;;;11.07;53.84
56671;BME280;42545;50.054;8.306;2023-04-25T12:31:45;99680.88;;;11.20;54.11
56671;BME280;42545;50.054;8.306;2023-04-25T12:34:12;99685.31;;;11.26;52.89
56671;BME280;42545;50.054;8.306;2023-04-25T12:36:38;99688.72;;;11.09;51.81
56671;BME280;42545;50.054;8.306;2023-04-25T12:39:07;99699.25;;;11.05;53.37
56671;BME280;42545;50.054;8.306;2023-04-25T12:41:33;99697.34;;;10.91;52.64
56671;BME280;42545;50.054;8.306;2023-04-25T12:44:00;99716.66;;;10.83;54.02
56671;BME280;42545;50.054;8.306;2023-04-25T12:46:27;99716.53;;;10.72;53.38
56671;BME280;42545;50.054;8.306;2023-04-25T12:48:54;99712.91;;;10.61;53.96
56671;BME280;42545;50.054;8.306;2023-04-25T12:51:22;99716.31;;;10.52;54.43
56671;BME280;42545;50.054;8.306;2023-04-25T12:53:50;99725.97;;;10.50;54.88
56671;BME280;42545;50.054;8.306;2023-04-25T12:56:21;99731.06;;;10.36;53.63
56671;BME280;42545;50.054;8.306;2023-04-25T12:58:47;99724.72;;;10.22;54.29
56671;BME280;42545;50.054;8.306;2023-04-25T13:01:14;99731.69;;;10.18;54.40
56671;BME280;42545;50.054;8.306;2023-04-25T13:03:41;99724.69;;;10.18;55.13
56671;BME280;42545;50.054;8.306;2023-04-25T13:06:08;99730.00;;;10.23;55.09
56671;BME280;42545;50.054;8.306;2023-04-25T13:08:34;99721.25;;;10.27;55.43
56671;BME280;42545;50.054;8.306;2023-04-25T13:11:02;99724.91;;;10.34;55.91
56671;BME280;42545;50.054;8.306;2023-04-25T13:13:31;99719.81;;;10.48;55.69
56671;BME280;42545;50.054;8.306;2023-04-25T13:15:59;99722.63;;;10.66;55.04
56671;BME280;42545;50.054;8.306;2023-04-25T13:18:27;99704.22;;;10.72;52.08